Time;durP1;ratioP1;P1;durP2;ratioP2;P2;SDS_P1;SDS_P2;PMS_P1;PMS_P2;Temp;Humidity;BMP_temperature;BMP_pressure;BME280_temperature;BME280_humidity;BME280_pressure;Samples;Min_cycle;Max_cycle;Signal;HPM_P1;HPM_P2
2022/09/09 00:01:01;;;;;;;1.65;0.90;;;;;;;20.15;55.46;100696.66;5086400;28;20052;-69
2022/09/09 00:03:38;;;;;;;3.45;1.48;;;;;;;20.14;55.27;100702.41;5084535;28;20057;-69
2022/09/09 00:06:18;;;;;;;1.52;0.80;;;;;;;20.13;55.23;100701.59;5081498;28;20094;-69
2022/09/09 00:08:56;;;;;;;3.13;1.25;;;;;;;20.11;55.23;100700.25;5074390;28;20059;-69
2022/09/09 00:11:29;;;;;;;1.50;1.05;;;;;;;20.09;55.41;100688.81;5084388;28;20052;-69
2022/09/09 00:14:04;;;;;;;0.68;0.60;;;;;;;20.07;55.24;100697.28;5087214;28;20116;-70
2022/09/09 00:16:36;;;;;;;3.03;0.73;;;;;;;20.07;55.34;100691.03;5075725;28;20060;-69
2022/09/09 00:19:08;;;;;;;0.55;0.50;;;;;;;20.05;55.58;100696.78;5083792;28;20087;-70
2022/09/09 00:21:38;;;;;;;1.23;0.80;;;;;;;20.05;55.33;100690.50;5086048;28;20044;-70
2022/09/09 00:24:13;;;;;;;1.35;0.70;;;;;;;20.04;55.54;100686.16;5083855;28;20048;-69
2022/09/09 00:26:45;;;;;;;1.55;0.90;;;;;;;20.01;55.35;100678.53;5080312;28;20051;-70
2022/09/09 00:29:26;;;;;;;1.65;0.70;;;;;;;20.01;55.43;100676.63;5078476;28;20064;-70
2022/09/09 00:31:59;;;;;;;3.80;1.00;;;;;;;20.00;55.30;100683.19;5073986;28;20068;-69
2022/09/09 00:34:29;;;;;;;1.25;0.70;;;;;;;20.00;55.54;100679.63;5081907;28;20059;-69
2022/09/09 00:36:57;;;;;;;2.22;0.80;;;;;;;19.99;55.53;100676.09;5078975;28;20041;-69
2022/09/09 00:39:32;;;;;;;1.38;0.68;;;;;;;19.99;55.45;100675.28;5071218;28;20049;-69
2022/09/09 00:42:13;;;;;;;2.80;0.60;;;;;;;19.97;55.28;100675.56;5080907;28;20048;-69
2022/09/09 00:44:52;;;;;;;0.80;0.60;;;;;;;19.97;55.37;100672.03;5074712;28;20063;-69
2022/09/09 00:47:44;;;;;;;3.80;0.70;;;;;;;19.96;55.44;100673.13;5084215;28;20057;-69
2022/09/09 00:50:29;;;;;;;0.70;0.68;;;;;;;19.94;55.44;100667.97;5083400;28;20056;-69
2022/09/09 00:53:06;;;;;;;2.85;1.17;;;;;;;19.94;55.60;100676.16;5071919;28;20044;-69
2022/09/09 00:55:42;;;;;;;1.52;0.65;;;;;;;19.91;55.65;100665.81;5087804;28;20059;-69
2022/09/09 00:58:10;;;;;;;1.45;0.75;;;;;;;19.90;55.51;100664.19;5073261;28;20048;-70
2022/09/09 01:00:44;;;;;;;5.50;1.02;;;;;;;19.91;55.48;100662.28;5083423;28;20067;-69
2022/09/09 01:03:24;;;;;;;3.28;0.93;;;;;;;19.88;55.54;100658.22;5076958;28;20049;-70
2022/09/09 01:06:03;;;;;;;1.50;0.70;;;;;;;19.88;55.71;100660.13;5082220;28;20522;-69
2022/09/09 01:08:50;;;;;;;1.10;0.70;;;;;;;19.86;55.50;100660.41;5078496;28;20063;-70
2022/09/09 01:11:21;;;;;;;;;;;;;;;19.85;55.87;100658.78;5086178;28;20041;-69
2022/09/09 01:13:58;;;;;;;1.95;0.90;;;;;;;19.84;55.65;100659.88;5080622;28;19931;-69
2022/09/09 01:16:30;;;;;;;1.67;0.75;;;;;;;19.82;55.77;100654.72;5077626;28;20045;-69
2022/09/09 01:18:59;;;;;;;1.85;0.80;;;;;;;19.81;55.74;100663.19;5083555;28;20076;-69
2022/09/09 01:21:41;;;;;;;1.42;0.88;;;;;;;19.79;55.90;100663.47;5088550;28;20048;-70
2022/09/09 01:24:20;;;;;;;3.40;0.80;;;;;;;19.78;55.93;100655.59;5079497;28;20048;-70
2022/09/09 01:26:50;;;;;;;1.45;0.70;;;;;;;19.76;55.60;100652.34;5085194;28;20044;-69
2022/09/09 01:29:20;;;;;;;1.15;0.70;;;;;;;19.76;55.89;100653.13;5083774;28;20052;-69
2022/09/09 01:31:55;;;;;;;0.93;0.75;;;;;;;19.74;55.76;100646.34;5084737;28;20052;-69
2022/09/09 01:34:24;;;;;;;1.30;0.60;;;;;;;19.73;55.86;100650.19;5082824;28;20044;-68
2022/09/09 01:36:58;;;;;;;0.85;0.50;;;;;;;19.71;55.78;100641.47;5079475;28;20250;-69
2022/09/09 01:39:27;;;;;;;2.60;0.80;;;;;;;19.69;55.71;100644.47;5084000;28;20044;-69
2022/09/09 01:41:57;;;;;;;1.65;0.93;;;;;;;19.69;55.52;100644.47;5080591;28;20430;-69
2022/09/09 01:44:26;;;;;;;2.30;1.00;;;;;;;19.68;55.82;100644.78;5071177;28;20049;-69
2022/09/09 01:46:54;;;;;;;6.38;0.80;;;;;;;19.66;55.71;100636.06;5083493;28;20040;-69
2022/09/09 01:49:22;;;;;;;3.33;1.33;;;;;;;19.64;55.71;100636.34;5084213;28;20052;-68
2022/09/09 01:51:52;;;;;;;1.55;0.88;;;;;;;19.60;55.80;100623.59;5071838;28;20048;-69
2022/09/09 01:54:23;;;;;;;1.02;0.80;;;;;;;19.63;55.84;100633.91;5081990;28;20045;-69
2022/09/09 01:57:03;;;;;;;3.22;1.10;;;;;;;19.60;55.84;100627.13;5078795;28;20041;-69
2022/09/09 01:59:48;;;;;;;2.95;0.82;;;;;;;19.60;56.06;100629.03;5069430;28;20041;-69
2022/09/09 02:02:19;;;;;;;5.18;0.88;;;;;;;19.59;55.97;100622.78;5084472;28;20059;-68
2022/09/09 02:04:50;;;;;;;1.73;1.02;;;;;;;19.58;56.10;100620.34;5083621;28;20056;-69
2022/09/09 02:07:31;;;;;;;2.53;0.93;;;;;;;19.58;55.96;100620.34;5068612;28;20041;-69
2022/09/09 02:10:05;;;;;;;0.88;0.75;;;;;;;19.56;55.84;100625.25;5066016;28;20053;-69
2022/09/09 02:12:34;;;;;;;1.45;0.63;;;;;;;19.55;56.19;100624.44;5066390;28;20384;-69
2022/09/09 02:15:09;;;;;;;1.13;1.00;;;;;;;19.54;55.95;100625.53;5075113;28;20052;-69
2022/09/09 02:17:39;;;;;;;4.03;1.10;;;;;;;19.54;56.14;100628.28;5086198;28;20502;-68
2022/09/09 02:20:11;;;;;;;1.90;1.10;;;;;;;19.53;55.79;100629.38;5077349;28;20048;-69
2022/09/09 02:22:41;;;;;;;4.53;1.10;;;;;;;19.52;56.06;100632.38;5083321;28;20410;-70
2022/09/09 02:25:13;;;;;;;5.80;1.00;;;;;;;19.51;56.10;100626.09;5084248;28;20048;-69
2022/09/09 02:27:46;;;;;;;1.98;0.90;;;;;;;19.50;55.97;100622.53;5074000;28;20049;-69
2022/09/09 02:30:15;;;;;;;1.73;0.77;;;;;;;19.46;55.93;100617.94;5082199;28;20139;-69
2022/09/09 02:32:46;;;;;;;2.28;0.73;;;;;;;19.48;55.98;100618.47;5078938;28;20048;-69
2022/09/09 02:35:16;;;;;;;0.95;0.60;;;;;;;19.47;55.96;100611.41;5085725;28;20047;-69
2022/09/09 02:37:46;;;;;;;1.45;0.70;;;;;;;19.46;55.99;100615.22;5082894;28;20091;-69
2022/09/09 02:40:16;;;;;;;1.67;0.80;;;;;;;19.43;56.01;100622.06;5082597;28;20497;-69
2022/09/09 02:42:47;;;;;;;3.10;0.90;;;;;;;19.44;56.08;100611.97;5079062;28;20056;-69
2022/09/09 02:45:18;;;;;;;3.15;1.25;;;;;;;19.43;55.86;100615.81;5083402;28;20422;-69
2022/09/09 02:47:54;;;;;;;3.05;0.90;;;;;;;19.41;56.00;100610.63;5083300;28;20052;-69
2022/09/09 02:50:27;;;;;;;1.75;0.93;;;;;;;19.40;55.92;100617.19;5082428;28;20059;-69
2022/09/09 02:53:07;;;;;;;1.83;0.80;;;;;;;19.40;55.92;100609.00;5069702;28;20041;-69
2022/09/09 02:55:40;;;;;;;4.05;1.10;;;;;;;19.37;55.93;100611.50;5084589;28;20052;-69
2022/09/09 02:58:12;;;;;;;1.40;0.98;;;;;;;19.39;56.10;100622.91;5075919;28;20049;-69
2022/09/09 03:00:40;;;;;;;2.78;0.82;;;;;;;19.35;56.25;100611.78;5083106;28;20041;-69
2022/09/09 03:03:09;;;;;;;2.70;1.10;;;;;;;19.36;55.76;100615.31;5076307;28;20464;-69
2022/09/09 03:05:37;;;;;;;2.33;1.10;;;;;;;19.34;55.90;100621.06;5086716;28;20044;-69
2022/09/09 03:08:06;;;;;;;2.65;0.80;;;;;;;19.34;55.92;100622.97;5078844;28;20045;-68
2022/09/09 03:10:34;;;;;;;2.63;0.60;;;;;;;19.33;55.97;100615.88;5076778;28;20041;-69
2022/09/09 03:13:02;;;;;;;2.63;0.90;;;;;;;19.32;56.06;100608.81;5067651;28;20049;-69
2022/09/09 03:15:31;;;;;;;5.70;0.90;;;;;;;19.31;55.99;100618.09;5074201;28;20045;-69
2022/09/09 03:17:59;;;;;;;3.00;0.88;;;;;;;19.30;55.88;100619.19;5082173;28;20064;-69
2022/09/09 03:20:28;;;;;;;3.47;1.10;;;;;;;19.29;55.95;100625.72;5082815;28;20071;-69
2022/09/09 03:22:57;;;;;;;2.17;0.90;;;;;;;19.28;55.96;100622.19;5086092;28;20040;-69
2022/09/09 03:25:25;;;;;;;3.05;1.20;;;;;;;19.25;56.13;100630.94;5087133;28;20143;-69
2022/09/09 03:27:54;;;;;;;1.77;0.88;;;;;;;19.26;56.06;100629.84;5078387;28;20041;-69
2022/09/09 03:30:22;;;;;;;3.30;1.52;;;;;;;19.25;56.15;100627.41;5081644;28;20409;-69
2022/09/09 03:32:51;;;;;;;2.40;0.82;;;;;;;19.24;56.32;100634.75;5087006;28;20048;-69
2022/09/09 03:35:19;;;;;;;2.65;0.98;;;;;;;19.23;56.06;100632.31;5078817;28;20068;-69
2022/09/09 03:37:47;;;;;;;3.90;0.88;;;;;;;19.22;56.08;100631.50;5085732;28;20037;-69
2022/09/09 03:40:15;;;;;;;1.98;1.00;;;;;;;19.22;56.35;100619.78;5083378;28;20060;-69
2022/09/09 03:42:43;;;;;;;4.00;1.00;;;;;;;19.20;56.17;100630.97;5092317;28;20049;-69
2022/09/09 03:45:11;;;;;;;1.40;0.77;;;;;;;19.20;56.15;100628.25;5077133;28;20044;-69
2022/09/09 03:47:39;;;;;;;2.97;1.00;;;;;;;19.19;56.32;100632.06;5086428;28;20045;-69
2022/09/09 03:50:10;;;;;;;5.70;1.08;;;;;;;19.18;56.37;100634.00;5080187;28;20482;-69
2022/09/09 03:52:40;;;;;;;2.30;1.00;;;;;;;19.17;56.53;100632.34;5087010;28;20045;-69
2022/09/09 03:55:08;;;;;;;1.20;0.80;;;;;;;19.16;56.18;100629.91;5074984;28;20045;-69
2022/09/09 03:57:37;;;;;;;2.60;0.70;;;;;;;19.15;56.24;100626.38;5075452;28;20040;-68
2022/09/09 04:00:06;;;;;;;2.92;0.88;;;;;;;19.14;56.32;100629.38;5087466;28;20062;-69
2022/09/09 04:02:34;;;;;;;1.05;0.70;;;;;;;19.13;56.41;100628.56;5081258;28;20056;-69
2022/09/09 04:05:01;;;;;;;1.40;0.75;;;;;;;19.14;56.24;100629.38;5076858;28;20056;-69
2022/09/09 04:07:30;;;;;;;1.70;1.00;;;;;;;19.13;56.15;100625.03;5082687;28;20052;-69
2022/09/09 04:09:58;;;;;;;2.38;1.10;;;;;;;19.12;56.13;100626.13;5083640;28;20052;-69
2022/09/09 04:12:26;;;;;;;1.58;1.00;;;;;;;19.12;56.16;100621.50;5081860;28;20045;-69
2022/09/09 04:14:53;;;;;;;2.53;1.50;;;;;;;19.12;56.10;100615.25;5074093;28;20056;-69
2022/09/09 04:17:21;;;;;;;4.00;1.38;;;;;;;19.11;56.21;100616.34;5077284;28;20044;-69
2022/09/09 04:19:49;;;;;;;4.43;1.23;;;;;;;19.10;56.34;100618.25;5066080;28;20049;-69
2022/09/09 04:22:16;;;;;;;4.60;1.35;;;;;;;19.10;56.11;100618.25;5093864;28;20048;-69
2022/09/09 04:24:45;;;;;;;3.08;1.23;;;;;;;19.10;56.02;100614.72;5087505;28;20056;-69
2022/09/09 04:27:15;;;;;;;1.90;0.95;;;;;;;19.09;56.14;100613.91;5086643;28;20047;-69
2022/09/09 04:29:43;;;;;;;1.73;0.98;;;;;;;19.08;56.30;100614.19;5080121;28;20467;-69
2022/09/09 04:32:11;;;;;;;3.45;1.02;;;;;;;19.09;56.19;100615.81;5076426;28;20067;-69
2022/09/09 04:34:39;;;;;;;3.30;1.13;;;;;;;19.07;56.12;100602.47;5073114;28;20053;-69
2022/09/09 04:37:07;;;;;;;3.40;1.27;;;;;;;19.06;56.16;100610.97;5090088;28;20059;-69
2022/09/09 04:39:35;;;;;;;2.08;1.05;;;;;;;19.06;56.28;100603.59;5082005;28;20052;-69
2022/09/09 04:42:04;;;;;;;2.83;1.08;;;;;;;19.05;56.09;100601.97;5086003;28;20055;-69
2022/09/09 04:44:32;;;;;;;2.30;0.93;;;;;;;19.04;56.29;100605.78;5080802;28;20048;-66
2022/09/09 04:46:59;;;;;;;3.60;0.90;;;;;;;19.05;56.15;100603.88;5077310;28;20045;-65
2022/09/09 04:49:27;;;;;;;4.75;1.08;;;;;;;19.04;56.25;100603.06;5081664;28;20055;-68
2022/09/09 04:51:55;;;;;;;3.67;1.33;;;;;;;19.03;56.09;100601.44;5078897;28;20052;-68
2022/09/09 04:54:23;;;;;;;3.08;1.25;;;;;;;19.03;56.03;100598.72;5071842;28;20044;-68
2022/09/09 04:56:51;;;;;;;5.38;1.15;;;;;;;19.03;56.30;100596.00;5089028;28;20331;-68
2022/09/09 04:59:20;;;;;;;2.63;0.98;;;;;;;19.02;56.38;100601.72;5088577;28;20063;-68
2022/09/09 05:01:48;;;;;;;1.33;0.80;;;;;;;19.01;56.36;100590.03;5084690;28;20060;-68
2022/09/09 05:04:16;;;;;;;3.90;1.10;;;;;;;19.02;56.12;100596.28;5077074;28;20525;-68
2022/09/09 05:06:43;;;;;;;3.90;1.10;;;;;;;19.01;56.44;100591.94;5085603;28;20044;-68
2022/09/09 05:09:11;;;;;;;2.58;1.13;;;;;;;19.00;56.35;100593.03;5087277;28;20655;-68
2022/09/09 05:11:39;;;;;;;2.90;1.35;;;;;;;18.99;56.24;100594.94;5071675;28;20047;-68
2022/09/09 05:14:06;;;;;;;3.90;1.17;;;;;;;18.98;56.23;100590.59;5079478;28;20051;-68
2022/09/09 05:16:36;;;;;;;3.80;1.33;;;;;;;18.99;56.17;100580.50;5077461;28;20053;-68
2022/09/09 05:19:03;;;;;;;3.55;1.40;;;;;;;18.97;56.38;100588.16;5080801;28;20044;-68
2022/09/09 05:21:31;;;;;;;3.50;0.93;;;;;;;18.98;56.78;100592.50;5075868;28;20072;-68
2022/09/09 05:24:00;;;;;;;4.55;1.20;;;;;;;18.98;56.39;100584.31;5085013;28;20052;-67
2022/09/09 05:26:29;;;;;;;2.17;0.98;;;;;;;18.98;56.46;100589.78;5078200;28;20374;-67
2022/09/09 05:28:56;;;;;;;2.53;1.10;;;;;;;18.98;56.60;100589.78;5082431;28;20041;-68
2022/09/09 05:31:27;;;;;;;3.63;1.50;;;;;;;18.96;56.53;100592.78;5083298;28;20048;-68
2022/09/09 05:33:56;;;;;;;5.40;1.70;;;;;;;18.96;56.46;100590.06;5077832;28;20045;-68
2022/09/09 05:36:24;;;;;;;4.22;2.00;;;;;;;18.95;56.57;100590.34;5075765;28;20051;-67
2022/09/09 05:38:53;;;;;;;2.85;1.48;;;;;;;18.94;56.63;100594.97;5081676;28;20052;-67
2022/09/09 05:41:22;;;;;;;2.85;1.20;;;;;;;18.93;56.65;100603.44;5079275;28;20043;-66
2022/09/09 05:43:50;;;;;;;6.78;1.13;;;;;;;18.92;56.60;100599.88;5084700;28;20057;-67
2022/09/09 05:46:20;;;;;;;4.25;1.35;;;;;;;18.93;56.64;100597.97;5083623;28;20044;-66
2022/09/09 05:48:50;;;;;;;2.92;1.10;;;;;;;18.92;56.53;100601.81;5076880;28;20050;-67
2022/09/09 05:51:21;;;;;;;4.13;1.25;;;;;;;19.01;56.37;100606.38;5079927;28;20051;-64
2022/09/09 05:53:50;;;;;;;4.13;1.45;;;;;;;18.95;56.40;100610.22;5068643;28;20059;-63
2022/09/09 05:56:19;;;;;;;6.72;1.48;;;;;;;18.87;56.65;100602.66;5076352;28;20051;-65
2022/09/09 05:58:49;;;;;;;4.75;1.85;;;;;;;18.90;56.83;100612.16;5077451;28;20051;-66
2022/09/09 06:01:18;;;;;;;5.60;1.80;;;;;;;18.90;56.68;100609.44;5073316;28;20063;-65
2022/09/09 06:03:46;;;;;;;4.05;1.30;;;;;;;18.89;56.83;100607.81;4727950;28;10000194;-65
2022/09/09 06:06:17;;;;;;;4.97;1.33;;;;;;;18.88;57.40;100617.06;4722749;28;10000503;-65
2022/09/09 06:08:46;;;;;;;6.05;1.60;;;;;;;18.90;56.94;100609.44;5071866;28;20044;-64
2022/09/09 06:11:15;;;;;;;2.45;1.00;;;;;;;18.89;57.06;100608.63;5088698;28;20055;-64
2022/09/09 06:13:44;;;;;;;2.85;1.05;;;;;;;18.91;56.92;100609.16;5078757;28;20229;-64
2022/09/09 06:16:13;;;;;;;4.30;1.40;;;;;;;18.92;57.12;100605.34;5070901;28;20049;-64
2022/09/09 06:18:42;;;;;;;5.20;1.58;;;;;;;18.96;58.42;100608.31;5080761;28;20131;-65
2022/09/09 06:21:14;;;;;;;8.18;1.40;;;;;;;18.96;58.35;100602.84;5081953;28;20078;-65
2022/09/09 06:23:42;;;;;;;4.93;1.30;;;;;;;18.95;58.02;100599.31;5085344;28;20060;-65
2022/09/09 06:26:13;;;;;;;6.22;1.83;;;;;;;18.95;58.18;100610.22;5069253;28;20052;-64
2022/09/09 06:28:42;;;;;;;5.35;1.65;;;;;;;18.96;57.87;100608.31;5074863;28;20052;-64
2022/09/09 06:31:13;;;;;;;4.43;1.90;;;;;;;18.97;57.98;100607.22;5081888;28;20055;-64
2022/09/09 06:33:43;;;;;;;5.78;1.70;;;;;;;18.99;58.08;100603.09;5081997;28;20102;-64
2022/09/09 06:36:12;;;;;;;6.57;1.90;;;;;;;19.20;58.29;100603.72;5078595;28;20048;-64
2022/09/09 06:38:40;;;;;;;8.20;1.85;;;;;;;19.12;58.18;100604.34;5068722;28;20057;-65
2022/09/09 06:41:09;;;;;;;4.47;1.63;;;;;;;19.10;58.31;100604.63;5082949;28;20462;-64
2022/09/09 06:43:39;;;;;;;6.22;1.20;;;;;;;19.18;58.64;100604.00;5076844;28;20041;-64
2022/09/09 06:46:09;;;;;;;6.07;2.22;;;;;;;19.16;58.07;100598.03;5078001;28;20056;-65
2022/09/09 06:48:37;;;;;;;4.55;1.13;;;;;;;19.23;58.29;100594.19;5073310;28;20393;-63
2022/09/09 06:51:06;;;;;;;3.25;1.25;;;;;;;19.48;58.75;100589.31;5084415;28;20049;-62
2022/09/09 06:53:35;;;;;;;9.43;2.03;;;;;;;19.39;57.91;100603.84;5088007;28;20040;-63
2022/09/09 06:56:17;;;;;;;6.18;1.67;;;;;;;19.61;57.63;100596.03;5081710;28;20099;-62
2022/09/09 06:58:46;;;;;;;7.18;1.73;;;;;;;19.76;58.12;100593.16;5079934;28;20044;-64
2022/09/09 07:01:16;;;;;;;8.85;1.63;;;;;;;19.52;57.61;100596.94;5082847;28;20048;-63
2022/09/09 07:03:47;;;;;;;4.60;1.58;;;;;;;19.40;58.45;100600.84;5072309;28;20147;-64
2022/09/09 07:06:17;;;;;;;7.15;1.85;;;;;;;19.69;57.84;100600.03;5071953;28;20056;-65
2022/09/09 07:08:49;;;;;;;3.50;1.77;;;;;;;19.47;58.11;100603.22;5080711;28;20040;-64
2022/09/09 07:11:25;;;;;;;4.85;1.40;;;;;;;19.38;58.36;100603.03;5076267;28;20202;-64
2022/09/09 07:13:55;;;;;;;6.93;1.20;;;;;;;19.57;58.22;100603.16;5073926;28;20116;-63
2022/09/09 07:16:24;;;;;;;8.45;2.03;;;;;;;19.91;57.73;100605.81;5076548;28;20055;-63
2022/09/09 07:18:55;;;;;;;8.52;1.70;;;;;;;19.59;57.81;100609.13;5075636;28;20108;-61
2022/09/09 07:21:24;;;;;;;5.35;1.83;;;;;;;19.44;58.34;100603.81;5075833;28;20056;-61
2022/09/09 07:23:52;;;;;;;4.40;1.58;;;;;;;19.43;58.70;100594.00;5074506;28;20045;-62
2022/09/09 07:26:23;;;;;;;5.50;1.88;;;;;;;19.36;58.40;100593.50;5075609;28;20060;-63
2022/09/09 07:28:50;;;;;;;7.13;2.10;;;;;;;19.32;58.79;100593.28;5074127;28;20052;-61
2022/09/09 07:31:22;;;;;;;9.20;2.00;;;;;;;19.31;58.40;100594.38;5077445;28;20135;-62
2022/09/09 07:33:49;;;;;;;6.00;2.17;;;;;;;19.29;58.96;100596.56;5075170;28;20121;-62
2022/09/09 07:36:21;;;;;;;4.85;1.73;;;;;;;19.53;58.08;100595.84;5079782;28;20076;-60
2022/09/09 07:38:51;;;;;;;8.68;1.85;;;;;;;20.02;57.96;100595.59;5085874;28;20062;-62
2022/09/09 07:41:21;;;;;;;4.90;1.58;;;;;;;19.68;57.91;100603.88;5082298;28;20044;-60
2022/09/09 07:43:50;;;;;;;5.75;2.05;;;;;;;19.88;58.06;100600.13;5084897;28;20059;-61
2022/09/09 07:46:21;;;;;;;6.57;2.03;;;;;;;19.60;58.34;100599.84;5077782;28;20401;-61
2022/09/09 07:48:51;;;;;;;5.68;1.67;;;;;;;19.80;57.32;100601.56;5086320;28;20045;-62
2022/09/09 07:51:22;;;;;;;8.32;1.92;;;;;;;20.16;57.39;100596.50;5084060;28;20049;-60
2022/09/09 07:53:53;;;;;;;6.93;1.95;;;;;;;19.94;57.05;100597.03;5090115;28;20112;-60
2022/09/09 07:56:23;;;;;;;6.38;2.00;;;;;;;19.68;57.69;100587.50;5082745;28;20059;-61
2022/09/09 07:58:52;;;;;;;4.88;1.77;;;;;;;19.55;58.08;100591.72;5085855;28;20041;-61
2022/09/09 08:01:24;;;;;;;3.30;1.27;;;;;;;20.34;56.71;100601.19;5078462;28;20059;-61
2022/09/09 08:03:59;;;;;;;9.20;1.83;;;;;;;20.55;55.74;100601.78;5085196;28;20090;-61
2022/09/09 08:06:27;;;;;;;10.30;2.97;;;;;;;20.04;56.99;100607.03;5082695;28;20048;-60
2022/09/09 08:08:55;;;;;;;6.13;1.63;;;;;;;20.56;55.60;100603.38;5078468;28;20071;-63
2022/09/09 08:11:25;;;;;;;9.82;2.35;;;;;;;20.05;57.02;100606.75;5077100;28;20048;-63
2022/09/09 08:13:54;;;;;;;8.25;1.98;;;;;;;19.95;56.91;100601.41;5086286;28;20052;-63
2022/09/09 08:16:32;;;;;;;7.03;1.98;;;;;;;19.79;57.41;100606.22;5083589;28;20101;-63
2022/09/09 08:19:00;;;;;;;6.47;1.75;;;;;;;19.76;57.61;100604.06;5081963;28;20135;-64
2022/09/09 08:21:30;;;;;;;6.18;1.67;;;;;;;19.64;57.78;100606.38;5084525;28;20052;-62
2022/09/09 08:23:59;;;;;;;3.72;1.20;;;;;;;19.60;58.28;100604.50;5090460;28;20064;-63
2022/09/09 08:26:29;;;;;;;6.13;1.77;;;;;;;19.50;58.04;100608.09;5083432;28;20048;-63
2022/09/09 08:28:58;;;;;;;3.53;1.60;;;;;;;19.44;58.29;100606.53;5086375;28;20047;-63
2022/09/09 08:31:28;;;;;;;4.20;1.55;;;;;;;19.40;58.41;100600.84;5080934;28;20044;-63
2022/09/09 08:33:59;;;;;;;5.43;1.50;;;;;;;19.39;58.28;100614.75;5085738;28;20044;-64
2022/09/09 08:36:29;;;;;;;4.28;1.80;;;;;;;19.43;58.70;100608.44;5082508;28;20491;-63
2022/09/09 08:38:58;;;;;;;7.78;1.90;;;;;;;19.54;58.03;100605.66;5085056;28;20059;-63
2022/09/09 08:41:48;;;;;;;7.30;1.85;;;;;;;19.47;58.24;100619.56;5083016;28;20063;-64
2022/09/09 08:44:30;;;;;;;6.45;1.90;;;;;;;19.44;58.16;100610.06;5085389;28;20054;-64
2022/09/09 08:47:06;;;;;;;8.65;1.65;;;;;;;19.42;58.39;100617.72;5077212;28;20058;-64
2022/09/09 08:49:51;;;;;;;4.22;1.25;;;;;;;19.38;58.43;100616.66;5085257;28;20051;-65
2022/09/09 08:52:23;;;;;;;6.22;2.17;;;;;;;19.47;58.39;100616.84;5079452;28;20045;-65
2022/09/09 08:54:51;;;;;;;5.30;1.80;;;;;;;19.43;58.38;100615.81;5085563;28;20052;-65
2022/09/09 08:57:26;;;;;;;6.45;1.88;;;;;;;19.41;58.45;100615.28;5075304;28;20562;-65
2022/09/09 08:59:57;;;;;;;5.85;1.52;;;;;;;19.40;58.42;100627.28;5080333;28;20527;-66
2022/09/09 09:02:29;;;;;;;3.20;1.25;;;;;;;19.39;58.33;100629.19;5079318;28;20058;-65
2022/09/09 09:05:12;;;;;;;4.45;1.58;;;;;;;19.38;58.36;100630.28;5086455;28;20070;-66
2022/09/09 09:07:56;;;;;;;4.03;1.52;;;;;;;19.40;58.79;100635.44;5084755;28;20059;-64
2022/09/09 09:10:39;;;;;;;8.82;2.00;;;;;;;19.42;58.69;100636.78;5082393;28;20514;-66
2022/09/09 09:13:15;;;;;;;4.78;1.70;;;;;;;19.40;58.50;100640.91;5083230;28;20056;-64
2022/09/09 09:15:49;;;;;;;7.18;1.95;;;;;;;19.38;58.35;100640.38;5082346;28;20052;-65
2022/09/09 09:18:18;;;;;;;9.18;1.63;;;;;;;19.35;58.64;100644.47;5084533;28;20140;-61
2022/09/09 09:20:54;;;;;;;9.10;3.15;;;;;;;19.34;58.68;100648.31;5083916;28;20043;-64
2022/09/09 09:23:26;;;;;;;4.88;1.70;;;;;;;19.34;58.48;100658.41;5079543;28;20059;-61
2022/09/09 09:26:00;;;;;;;4.03;1.50;;;;;;;19.33;58.66;100649.41;5088384;28;20108;-63
2022/09/09 09:28:32;;;;;;;7.18;1.92;;;;;;;19.31;58.82;100643.44;5083176;28;20055;-62
2022/09/09 09:31:04;;;;;;;4.85;1.45;;;;;;;19.32;58.59;100639.59;5088756;28;20144;-61
2022/09/09 09:33:47;;;;;;;5.20;1.80;;;;;;;19.33;58.75;100638.50;5082163;28;20044;-61
2022/09/09 09:36:17;;;;;;;7.25;2.25;;;;;;;19.33;58.41;100637.69;5083917;28;20045;-61
2022/09/09 09:38:56;;;;;;;6.25;1.77;;;;;;;19.31;58.56;100639.88;5079377;28;20485;-60
2022/09/09 09:41:45;;;;;;;3.90;1.83;;;;;;;19.31;58.52;100642.59;5081298;28;20045;-61
2022/09/09 09:44:24;;;;;;;10.25;1.95;;;;;;;19.30;58.49;100636.34;5083939;28;20075;-62
2022/09/09 09:46:52;;;;;;;7.22;2.22;;;;;;;19.31;58.41;100629.81;5088198;28;20060;-62
2022/09/09 09:49:20;;;;;;;5.55;1.85;;;;;;;19.31;58.23;100642.59;5071801;28;20087;-61
2022/09/09 09:51:50;;;;;;;5.80;1.42;;;;;;;19.32;58.71;100641.50;5077625;28;20040;-61
2022/09/09 09:54:27;;;;;;;7.20;1.90;;;;;;;19.32;58.59;100642.31;5083562;28;20126;-61
2022/09/09 09:56:55;;;;;;;4.68;1.50;;;;;;;19.33;58.81;100640.41;5081784;28;20049;-63
2022/09/09 09:59:33;;;;;;;5.03;1.77;;;;;;;19.33;58.52;100640.41;5087075;28;20048;-63
2022/09/09 10:02:20;;;;;;;7.38;2.20;;;;;;;19.34;58.64;100644.78;5080695;28;20059;-64
2022/09/09 10:04:48;;;;;;;6.05;1.48;;;;;;;19.33;58.69;100645.88;5076999;28;20455;-66
2022/09/09 10:07:22;;;;;;;6.07;1.80;;;;;;;19.33;58.68;100638.50;5083584;28;20052;-66
2022/09/09 10:09:54;;;;;;;3.15;1.35;;;;;;;19.32;58.64;100645.06;5077499;28;20048;-65
2022/09/09 10:12:37;;;;;;;5.88;2.00;;;;;;;19.33;58.58;100643.13;5082967;28;20044;-66
2022/09/09 10:15:22;;;;;;;5.40;1.50;;;;;;;19.33;58.78;100645.88;5082409;28;20044;-66
2022/09/09 10:18:01;;;;;;;8.05;1.75;;;;;;;19.33;58.74;100643.13;5076394;28;20067;-66
2022/09/09 10:20:39;;;;;;;4.35;1.38;;;;;;;19.32;58.96;100647.78;5082914;28;20405;-66
2022/09/09 10:23:22;;;;;;;6.28;1.40;;;;;;;19.32;59.16;100655.13;5079076;28;20049;-66
2022/09/09 10:26:04;;;;;;;6.97;1.75;;;;;;;19.33;59.25;100662.22;5083282;28;20054;-66
2022/09/09 10:28:55;;;;;;;7.53;1.63;;;;;;;19.32;59.49;100664.13;5074146;28;20048;-67
2022/09/09 10:31:38;;;;;;;3.92;1.45;;;;;;;19.31;59.40;100662.50;5085268;28;20040;-66
2022/09/09 10:34:22;;;;;;;;;;;;;;;19.32;59.42;100672.31;5080015;28;20060;-66
2022/09/09 10:37:08;;;;;;;4.45;1.52;;;;;;;19.32;59.66;100675.03;5082978;28;19950;-65
2022/09/09 10:39:47;;;;;;;3.75;1.25;;;;;;;19.32;59.55;100663.31;5077769;28;20052;-66
2022/09/09 10:42:29;;;;;;;5.53;1.50;;;;;;;19.31;59.44;100667.94;5082640;28;20478;-63
2022/09/09 10:45:19;;;;;;;4.43;1.40;;;;;;;19.32;59.80;100668.75;5075740;28;20109;-66
2022/09/09 10:48:20;;;;;;;5.03;1.70;;;;;;;19.32;59.70;100666.03;5084169;28;20084;-66
2022/09/09 10:51:01;;;;;;;5.85;1.80;;;;;;;19.32;59.82;100664.13;5075052;28;20063;-66
2022/09/09 10:53:38;;;;;;;7.03;1.52;;;;;;;19.33;59.75;100659.50;5081493;28;20040;-65
2022/09/09 10:56:12;;;;;;;6.15;1.85;;;;;;;19.34;59.85;100658.41;5078913;28;20108;-67
2022/09/09 10:58:45;;;;;;;6.25;1.63;;;;;;;19.47;61.10;100653.09;5073429;28;20052;-65
2022/09/09 11:01:30;;;;;;;8.00;1.85;;;;;;;19.42;60.10;100650.41;5082252;28;20045;-65
2022/09/09 11:04:07;;;;;;;7.05;1.55;;;;;;;19.40;60.20;100651.81;5074926;28;20142;-66
2022/09/09 11:06:43;;;;;;;6.90;1.42;;;;;;;19.38;60.38;100665.72;5082392;28;20051;-65
2022/09/09 11:09:18;;;;;;;4.43;1.27;;;;;;;19.46;61.03;100651.47;5082754;28;20052;-65
2022/09/09 11:11:52;;;;;;;;;;;;;;;19.34;60.23;100640.13;5068571;28;20041;-65
2022/09/09 11:14:27;;;;;;;5.38;1.33;;;;;;;19.40;60.74;100663.53;5080326;28;19960;-64
2022/09/09 11:17:00;;;;;;;4.32;1.80;;;;;;;19.39;60.53;100655.63;5084722;28;20123;-63
2022/09/09 11:19:35;;;;;;;4.50;1.33;;;;;;;19.39;60.87;100663.81;5080205;28;20060;-64
2022/09/09 11:22:07;;;;;;;4.75;1.40;;;;;;;19.38;60.67;100654.00;5080091;28;20502;-65
2022/09/09 11:24:40;;;;;;;5.10;1.67;;;;;;;19.36;60.82;100654.28;5073392;28;20044;-65
2022/09/09 11:27:14;;;;;;;7.55;2.38;;;;;;;19.36;60.71;100654.28;5088743;28;20052;-65
2022/09/09 11:30:13;;;;;;;6.28;1.98;;;;;;;19.37;61.28;100646.91;5081858;28;20056;-66
2022/09/09 11:33:43;;;;;;;4.05;1.73;;;;;;;19.37;60.86;100649.66;5073065;28;20051;-65
2022/09/09 11:36:31;;;;;;;3.78;1.42;;;;;;;19.38;61.03;100656.72;5041759;28;20050;-66
2022/09/09 11:39:08;;;;;;;5.18;1.85;;;;;;;19.38;61.03;100648.56;5042637;28;20510;-67
2022/09/09 11:41:38;;;;;;;3.78;1.55;;;;;;;19.38;61.05;100652.09;5039429;28;20406;-67
2022/09/09 11:44:14;;;;;;;2.60;1.10;;;;;;;19.39;61.30;100652.91;5037425;28;20058;-67
2022/09/09 11:46:42;;;;;;;2.42;1.30;;;;;;;19.49;61.55;100659.09;5043535;28;20075;-67
2022/09/09 11:49:27;;;;;;;2.50;1.10;;;;;;;19.52;61.23;100654.19;5042462;28;20058;-66
2022/09/09 11:51:55;;;;;;;3.28;1.40;;;;;;;19.50;61.06;100652.53;5042227;28;20497;-67